Terminal Aerodrome Forecast
Issued by NWS Portland, OR

Home | Current Version | Previous Version | Text Only | Print | Product List | Glossary On
Versions: 1 2 3 4 5 6 7 8 9 10 11 12 13 14 15 16 17 18 19 20 21 22 23 24 25 26 27 28 29 30 31 32 33 34 35 36 37 38 39 40
000
FTUS46 KPQR 021739
TAFEUG
TAF
KEUG 021739Z 0218/0318 02003KT P6SM BKN012 OVC050
     FM021930 01007KT P6SM SCT015 BKN050
     FM022200 35007KT P6SM SCT050
     FM030300 00000KT P6SM SKC
     FM031000 00000KT 1SM BR BKN001=

USA.gov is the U.S. government's official web portal to all federal, state and local government web resources and services.